createdAt,value
2023-02-05T00:02:07.291Z,79.32
2023-02-05T00:07:09.077Z,79.58
2023-02-05T00:12:11.043Z,80.23
2023-02-05T00:17:12.636Z,80.82
2023-02-05T00:22:14.268Z,81.67
2023-02-05T00:27:15.867Z,81.66
2023-02-05T00:32:17.931Z,82.21
2023-02-05T00:37:19.544Z,83.44
2023-02-05T00:42:21.272Z,84.19
2023-02-05T00:47:22.933Z,84.85
2023-02-05T00:52:24.761Z,86.16
2023-02-05T00:57:26.534Z,85.53
2023-02-05T01:02:28.243Z,85.38
2023-02-05T01:07:29.906Z,85.45
2023-02-05T01:12:33.300Z,85.97
2023-02-05T01:17:35.302Z,87.18
2023-02-05T01:22:37.441Z,86.99
2023-02-05T01:27:39.338Z,86.72
2023-02-05T01:32:41.687Z,87.14
2023-02-05T01:37:43.336Z,87.61
2023-02-05T01:42:45.628Z,87.36
2023-02-05T01:47:48.488Z,87.95
2023-02-05T01:52:50.663Z,88.26
2023-02-05T01:57:53.771Z,88.65
2023-02-05T02:02:55.544Z,89.55
2023-02-05T02:07:57.208Z,89.94
2023-02-05T02:12:58.895Z,90.34
2023-02-05T02:18:22.126Z,90.36
2023-02-05T02:23:56.108Z,91.13
2023-02-05T02:29:03.838Z,91.05
2023-02-05T02:34:10.357Z,91.27
2023-02-05T02:39:25.423Z,91.59
2023-02-05T02:44:42.395Z,91.61
2023-02-05T02:49:49.585Z,91.92
2023-02-05T02:54:54.664Z,91.89
2023-02-05T03:00:01.275Z,92.33
2023-02-05T03:05:11.544Z,92.79
2023-02-05T03:10:20.403Z,93.39
2023-02-05T03:15:22.339Z,92.73
2023-02-05T03:20:29.816Z,93.02
2023-02-05T03:25:31.597Z,94.33
2023-02-05T03:30:49.048Z,94.07
2023-02-05T03:36:08.416Z,93.42
2023-02-05T03:41:57.061Z,93.61
2023-02-05T03:47:20.111Z,94.25
2023-02-05T03:52:32.645Z,93.65
2023-02-05T03:58:06.569Z,93.88
2023-02-05T04:03:08.382Z,93.79
2023-02-05T04:08:11.059Z,94.29
2023-02-05T04:13:18.929Z,94.85
2023-02-05T04:18:20.717Z,93.73
2023-02-05T04:23:24.173Z,93.83
2023-02-05T04:28:27.083Z,94.76
2023-02-05T04:33:29.011Z,95.41
2023-02-05T04:38:30.806Z,95.23
2023-02-05T04:43:32.448Z,95.85
2023-02-05T04:48:35.232Z,96.10
2023-02-05T04:53:37.366Z,95.49
2023-02-05T04:58:39.319Z,95.38
2023-02-05T05:03:41.515Z,95.87
2023-02-05T05:08:43.565Z,95.67
2023-02-05T05:13:46.068Z,95.42
2023-02-05T05:18:47.750Z,95.80
2023-02-05T05:23:49.438Z,96.24
2023-02-05T05:28:54.853Z,95.22
2023-02-05T05:33:56.456Z,95.32
2023-02-05T05:39:18.021Z,93.72
2023-02-05T05:44:19.627Z,92.93
2023-02-05T05:49:21.389Z,92.10
2023-02-05T05:54:23.024Z,90.95
2023-02-05T05:59:24.628Z,91.71
2023-02-05T06:04:26.235Z,93.44
2023-02-05T06:09:28.259Z,92.85
2023-02-05T06:14:29.882Z,92.30
2023-02-05T06:19:31.608Z,92.74
2023-02-05T06:24:33.237Z,92.69
2023-02-05T06:29:34.897Z,93.08
2023-02-05T06:34:36.513Z,93.14
2023-02-05T06:39:38.104Z,93.53
2023-02-05T06:44:39.720Z,92.98
2023-02-05T06:49:41.411Z,91.89
2023-02-05T06:54:44.716Z,91.48
2023-02-05T06:59:46.332Z,91.28
2023-02-05T07:04:47.979Z,90.94
2023-02-05T07:09:49.634Z,91.14
2023-02-05T07:14:51.262Z,91.18
2023-02-05T07:19:53.284Z,90.25
2023-02-05T07:24:54.983Z,89.28
2023-02-05T07:29:56.566Z,86.67
2023-02-05T07:34:58.213Z,85.12
2023-02-05T07:39:59.824Z,83.72
2023-02-05T07:45:01.485Z,83.45
2023-02-05T07:50:04.830Z,80.29
2023-02-05T07:55:06.606Z,80.18
2023-02-05T08:00:10.137Z,78.67
2023-02-05T08:05:14.661Z,79.22
2023-02-05T08:10:16.515Z,79.10
2023-02-05T08:15:18.228Z,76.26
2023-02-05T08:20:19.954Z,76.35
2023-02-05T08:25:21.692Z,74.36
2023-02-05T08:30:23.599Z,73.53
2023-02-05T08:35:25.259Z,73.40
2023-02-05T08:40:26.868Z,69.37
2023-02-05T08:45:29.643Z,69.50
2023-02-05T08:50:31.454Z,71.03
2023-02-05T08:55:33.955Z,74.04
2023-02-05T09:00:38.012Z,72.42
2023-02-05T09:05:39.801Z,70.88
2023-02-05T09:10:45.014Z,69.57
2023-02-05T09:15:48.596Z,69.51
2023-02-05T09:20:51.417Z,67.90
2023-02-05T09:25:53.218Z,66.31
2023-02-05T09:30:54.903Z,65.37
2023-02-05T09:35:56.531Z,60.86
2023-02-05T09:41:05.370Z,60.12
2023-02-05T09:46:28.782Z,60.73
2023-02-05T09:51:38.745Z,60.61
2023-02-05T09:56:42.236Z,59.78
2023-02-05T10:01:55.041Z,62.56
2023-02-05T10:07:14.844Z,62.92
2023-02-05T10:12:26.736Z,63.45
2023-02-05T10:18:05.942Z,63.26
2023-02-05T10:23:32.269Z,66.89
2023-02-05T10:28:57.527Z,66.68
2023-02-05T10:34:15.251Z,65.51
2023-02-05T10:39:19.435Z,64.10
2023-02-05T10:44:30.151Z,62.56
2023-02-05T10:50:03.927Z,63.59
2023-02-05T10:55:05.988Z,61.65
2023-02-05T11:00:22.502Z,62.09
2023-02-05T11:05:40.510Z,60.52
2023-02-05T11:10:42.182Z,63.09
2023-02-05T11:15:55.807Z,61.95
2023-02-05T11:21:02.563Z,62.82
2023-02-05T11:26:18.257Z,60.52
2023-02-05T11:31:33.083Z,60.34
2023-02-05T11:36:37.320Z,61.86
2023-02-05T11:41:51.917Z,61.65
2023-02-05T11:46:57.575Z,61.80
2023-02-05T11:52:00.134Z,62.72
2023-02-05T11:57:03.545Z,62.69
2023-02-05T12:02:30.663Z,58.77
2023-02-05T12:08:13.592Z,58.56
2023-02-05T12:13:22.961Z,57.21
2023-02-05T12:18:44.339Z,56.77
2023-02-05T12:24:07.024Z,57.07
2023-02-05T12:29:46.181Z,53.25
2023-02-05T12:35:05.830Z,52.71
2023-02-05T12:40:23.696Z,56.26
2023-02-05T12:45:49.927Z,56.04
2023-02-05T12:51:09.991Z,57.75
2023-02-05T12:56:23.358Z,58.23
2023-02-05T13:01:37.981Z,56.75
2023-02-05T13:06:48.990Z,57.39
2023-02-05T13:12:02.179Z,52.73
2023-02-05T13:17:11.566Z,53.52
2023-02-05T13:22:53.033Z,53.46
2023-02-05T13:28:16.867Z,53.47
2023-02-05T13:33:18.716Z,54.10
2023-02-05T13:38:45.906Z,54.74
2023-02-05T13:44:09.135Z,53.65
2023-02-05T13:49:32.427Z,54.08
2023-02-05T13:54:53.244Z,52.96
2023-02-05T13:59:56.421Z,52.09
2023-02-05T14:05:00.708Z,52.37
2023-02-05T14:10:02.964Z,53.48
2023-02-05T14:15:16.960Z,53.26
2023-02-05T14:20:24.582Z,53.09
2023-02-05T14:25:35.393Z,53.99
2023-02-05T14:30:53.021Z,53.33
2023-02-05T14:35:56.553Z,54.07
2023-02-05T14:41:22.958Z,53.03
2023-02-05T14:46:41.968Z,53.74
2023-02-05T14:51:51.427Z,55.75
2023-02-05T14:57:09.214Z,54.58
2023-02-05T15:02:48.281Z,56.13
2023-02-05T15:08:00.587Z,56.73
2023-02-05T15:13:15.005Z,58.32
2023-02-05T15:18:32.211Z,58.84
2023-02-05T15:23:51.383Z,58.72
2023-02-05T15:29:00.550Z,59.14
2023-02-05T15:34:38.647Z,58.21
2023-02-05T15:39:56.360Z,58.17
2023-02-05T15:44:58.091Z,58.89
2023-02-05T15:50:01.602Z,59.25
2023-02-05T15:55:13.226Z,60.53
2023-02-05T16:00:22.500Z,59.61
2023-02-05T16:05:25.939Z,60.96
2023-02-05T16:10:30.660Z,60.02
2023-02-05T16:15:41.214Z,60.74
2023-02-05T16:20:53.855Z,60.15
2023-02-05T16:25:57.500Z,59.87
2023-02-05T16:31:00.830Z,61.31
2023-02-05T16:36:07.045Z,66.73
2023-02-05T16:41:19.754Z,63.89
2023-02-05T16:46:24.179Z,65.20
2023-02-05T16:51:45.438Z,65.74
2023-02-05T16:57:05.063Z,66.56
2023-02-05T17:02:23.313Z,65.05
2023-02-05T17:07:25.198Z,65.55
2023-02-05T17:12:32.548Z,65.13
2023-02-05T17:17:49.048Z,69.43
2023-02-05T17:23:05.690Z,71.48
2023-02-05T17:28:13.181Z,73.35
2023-02-05T17:33:23.521Z,73.39
2023-02-05T17:38:25.125Z,76.83
2023-02-05T17:43:26.727Z,76.69
2023-02-05T17:48:28.352Z,77.99
2023-02-05T17:53:30.031Z,79.43
2023-02-05T17:58:31.824Z,77.53
2023-02-05T18:03:33.478Z,78.22
2023-02-05T18:08:37.125Z,79.78
2023-02-05T18:13:38.865Z,81.46
2023-02-05T18:18:40.503Z,80.79
2023-02-05T18:23:42.493Z,81.45
2023-02-05T18:28:45.202Z,82.15
2023-02-05T18:33:48.438Z,82.12
2023-02-05T18:38:50.063Z,82.55
2023-02-05T18:43:56.170Z,82.94
2023-02-05T18:48:57.785Z,83.74
2023-02-05T18:53:59.584Z,83.56
2023-02-05T18:59:06.013Z,85.31
2023-02-05T19:04:13.848Z,85.31
2023-02-05T19:09:15.461Z,85.41
2023-02-05T19:14:19.382Z,85.86
2023-02-05T19:19:23.832Z,85.07
2023-02-05T19:24:25.478Z,86.01
2023-02-05T19:29:27.679Z,86.51
2023-02-05T19:34:29.448Z,86.51
2023-02-05T19:39:32.158Z,86.78
2023-02-05T19:44:33.818Z,87.62
2023-02-05T19:49:35.461Z,87.32
2023-02-05T19:54:37.069Z,87.32
2023-02-05T19:59:38.671Z,87.32
2023-02-05T20:04:41.098Z,87.93
2023-02-05T20:09:42.731Z,88.52
2023-02-05T20:14:44.503Z,88.37
2023-02-05T20:19:46.102Z,88.47
2023-02-05T20:24:47.856Z,88.57
2023-02-05T20:30:07.823Z,88.57
2023-02-05T20:35:09.465Z,88.92
2023-02-05T20:40:11.549Z,88.84
2023-02-05T20:45:13.167Z,89.33
2023-02-05T20:50:14.967Z,88.77
2023-02-05T20:55:16.655Z,89.83
2023-02-05T21:00:21.025Z,89.79
2023-02-05T21:05:22.638Z,89.79
2023-02-05T21:10:24.308Z,89.20
2023-02-05T21:15:26.771Z,90.35
2023-02-05T21:20:28.369Z,90.53
2023-02-05T21:25:30.029Z,89.72
2023-02-05T21:30:31.667Z,89.72
2023-02-05T21:35:37.541Z,90.31
2023-02-05T21:40:39.197Z,90.42
2023-02-05T21:45:40.834Z,90.42
2023-02-05T21:50:42.467Z,90.42
2023-02-05T21:55:44.060Z,89.84
2023-02-05T22:00:45.699Z,90.45
2023-02-05T22:05:47.290Z,91.15
2023-02-05T22:10:48.945Z,91.15
2023-02-05T22:15:50.935Z,91.73
2023-02-05T22:20:52.529Z,91.60
2023-02-05T22:25:54.148Z,84.41
2023-02-05T22:31:02.907Z,68.30
2023-02-05T22:36:05.984Z,91.60
2023-02-05T22:41:22.759Z,91.60
2023-02-05T22:46:27.397Z,100.00
2023-02-05T22:51:33.830Z,91.60
2023-02-05T22:56:35.731Z,68.30
2023-02-05T23:01:39.012Z,91.60
2023-02-05T23:06:42.781Z,100.00
2023-02-05T23:11:45.380Z,29.24
2023-02-05T23:16:47.860Z,100.00
2023-02-05T23:21:49.833Z,100.00
2023-02-05T23:26:53.395Z,91.60
2023-02-05T23:31:55.030Z,100.00
2023-02-05T23:36:56.652Z,100.00
2023-02-05T23:41:58.442Z,100.00
2023-02-05T23:47:00.033Z,100.00
2023-02-05T23:52:01.630Z,100.00
2023-02-05T23:57:03.403Z,100.00
